createdAt,value
2023-02-02T00:01:57.219Z,21.60
2023-02-02T00:04:36.595Z,21.40
2023-02-02T00:07:07.587Z,21.60
2023-02-02T00:09:35.052Z,21.50
2023-02-02T00:12:02.657Z,21.50
2023-02-02T00:14:30.030Z,21.60
2023-02-02T00:16:58.493Z,21.50
2023-02-02T00:19:30.548Z,21.60
2023-02-02T00:22:00.486Z,21.50
2023-02-02T00:24:28.311Z,21.80
2023-02-02T00:26:59.552Z,21.60
2023-02-02T00:29:30.461Z,21.50
2023-02-02T00:31:58.258Z,21.50
2023-02-02T00:34:30.795Z,21.50
2023-02-02T00:36:58.118Z,21.50
2023-02-02T00:39:29.593Z,21.50
2023-02-02T00:41:56.796Z,21.50
2023-02-02T00:44:42.892Z,21.50
2023-02-02T00:47:09.959Z,21.50
2023-02-02T00:49:37.188Z,21.50
2023-02-02T00:52:07.184Z,21.50
2023-02-02T00:54:39.177Z,21.40
2023-02-02T00:57:07.412Z,22.00
2023-02-02T00:59:34.486Z,21.50
2023-02-02T01:02:05.191Z,21.50
2023-02-02T01:04:34.969Z,21.50
2023-02-02T01:07:02.444Z,21.50
2023-02-02T01:09:29.474Z,21.50
2023-02-02T01:11:56.413Z,21.60
2023-02-02T01:14:24.270Z,21.40
2023-02-02T01:16:51.717Z,21.50
2023-02-02T01:19:21.443Z,21.40
2023-02-02T01:21:48.953Z,21.40
2023-02-02T01:24:16.360Z,21.50
2023-02-02T01:26:43.473Z,21.20
2023-02-02T01:29:10.664Z,21.40
2023-02-02T01:31:37.941Z,21.40
2023-02-02T01:34:07.419Z,21.30
2023-02-02T01:36:35.134Z,21.40
2023-02-02T01:39:05.975Z,21.40
2023-02-02T01:41:35.020Z,21.40
2023-02-02T01:44:08.943Z,21.40
2023-02-02T01:46:37.730Z,21.40
2023-02-02T01:49:21.583Z,21.30
2023-02-02T01:51:59.805Z,21.40
2023-02-02T01:54:35.146Z,21.30
2023-02-02T01:57:13.408Z,21.40
2023-02-02T01:59:42.427Z,21.40
2023-02-02T02:02:10.748Z,22.00
2023-02-02T02:04:44.716Z,21.30
2023-02-02T02:07:12.649Z,21.70
2023-02-02T02:09:44.565Z,21.30
2023-02-02T02:12:15.710Z,21.50
2023-02-02T02:15:08.022Z,21.40
2023-02-02T02:18:24.518Z,21.30
2023-02-02T02:22:01.793Z,21.30
2023-02-02T02:25:08.652Z,21.30
2023-02-02T02:28:11.206Z,21.30
2023-02-02T02:31:14.695Z,21.30
2023-02-02T02:33:51.011Z,20.40
2023-02-02T02:36:55.988Z,21.30
2023-02-02T02:39:45.432Z,20.20
2023-02-02T02:42:27.612Z,21.90
2023-02-02T02:45:00.923Z,21.20
2023-02-02T02:47:33.334Z,21.20
2023-02-02T02:50:00.356Z,21.30
2023-02-02T02:52:27.833Z,21.20
2023-02-02T02:54:58.402Z,21.20
2023-02-02T02:58:00.331Z,21.20
2023-02-02T03:00:45.698Z,21.20
2023-02-02T03:03:28.904Z,21.20
2023-02-02T03:06:11.421Z,21.20
2023-02-02T03:08:49.188Z,21.20
2023-02-02T03:11:18.277Z,21.20
2023-02-02T03:13:45.656Z,21.10
2023-02-02T03:16:18.747Z,22.00
2023-02-02T03:18:46.219Z,21.20
2023-02-02T03:21:21.533Z,19.60
2023-02-02T03:23:48.688Z,21.20
2023-02-02T03:26:16.055Z,21.20
2023-02-02T03:28:43.656Z,21.20
2023-02-02T03:31:11.059Z,21.20
2023-02-02T03:33:39.176Z,21.20
2023-02-02T03:36:10.082Z,21.20
2023-02-02T03:38:39.596Z,21.10
2023-02-02T03:41:07.019Z,21.10
2023-02-02T03:43:37.032Z,21.20
2023-02-02T03:46:06.352Z,21.20
2023-02-02T03:48:39.135Z,21.10
2023-02-02T03:51:15.583Z,21.10
2023-02-02T03:53:49.806Z,21.10
2023-02-02T03:56:17.424Z,21.10
2023-02-02T03:58:46.794Z,21.20
2023-02-02T04:01:15.795Z,21.10
2023-02-02T04:03:46.480Z,21.10
2023-02-02T04:06:13.886Z,21.10
2023-02-02T04:08:41.102Z,21.10
2023-02-02T04:11:14.125Z,20.70
2023-02-02T04:13:43.518Z,21.10
2023-02-02T04:16:12.384Z,21.10
2023-02-02T04:18:39.932Z,21.10
2023-02-02T04:21:09.222Z,21.10
2023-02-02T04:23:37.280Z,21.10
2023-02-02T04:26:07.538Z,21.10
2023-02-02T04:28:36.794Z,21.10
2023-02-02T04:31:07.229Z,21.10
2023-02-02T04:33:36.470Z,21.10
2023-02-02T04:36:04.639Z,21.10
2023-02-02T04:38:31.868Z,21.10
2023-02-02T04:40:59.149Z,21.10
2023-02-02T04:43:26.553Z,21.10
2023-02-02T04:45:57.519Z,21.10
2023-02-02T04:48:25.296Z,21.00
2023-02-02T04:50:59.821Z,21.10
2023-02-02T04:53:27.669Z,21.00
2023-02-02T04:55:55.250Z,21.10
2023-02-02T04:58:22.952Z,20.60
2023-02-02T05:00:50.646Z,21.00
2023-02-02T05:03:20.313Z,21.00
2023-02-02T05:05:51.233Z,21.00
2023-02-02T05:08:18.491Z,21.00
2023-02-02T05:10:50.395Z,21.00
2023-02-02T05:13:18.085Z,21.00
2023-02-02T05:15:45.387Z,21.00
2023-02-02T05:18:12.721Z,21.00
2023-02-02T05:20:39.921Z,21.00
2023-02-02T05:23:07.644Z,21.00
2023-02-02T05:25:34.881Z,21.00
2023-02-02T05:28:06.874Z,21.00
2023-02-02T05:30:34.286Z,21.00
2023-02-02T05:33:04.536Z,20.90
2023-02-02T05:35:31.856Z,21.00
2023-02-02T05:37:59.403Z,21.00
2023-02-02T05:40:26.778Z,20.90
2023-02-02T05:42:54.263Z,21.00
2023-02-02T05:45:22.902Z,21.20
2023-02-02T05:47:53.576Z,21.00
2023-02-02T05:50:20.711Z,21.00
2023-02-02T05:52:51.239Z,20.90
2023-02-02T05:55:20.145Z,21.00
2023-02-02T05:57:47.406Z,20.90
2023-02-02T06:00:15.333Z,20.90
2023-02-02T06:02:42.742Z,20.90
2023-02-02T06:05:10.038Z,20.90
2023-02-02T06:07:40.524Z,20.90
2023-02-02T06:10:08.078Z,20.70
2023-02-02T06:12:35.290Z,20.90
2023-02-02T06:15:02.499Z,20.90
2023-02-02T06:17:29.834Z,20.90
2023-02-02T06:20:03.130Z,20.90
2023-02-02T06:22:31.724Z,20.90
2023-02-02T06:24:59.477Z,20.90
2023-02-02T06:27:28.533Z,20.90
2023-02-02T06:29:55.641Z,20.90
2023-02-02T06:32:22.962Z,20.90
2023-02-02T06:34:50.195Z,20.90
2023-02-02T06:37:18.349Z,20.90
2023-02-02T06:39:45.414Z,20.90
2023-02-02T06:42:21.133Z,20.90
2023-02-02T06:44:49.377Z,20.90
2023-02-02T06:47:16.555Z,21.00
2023-02-02T06:49:49.812Z,21.10
2023-02-02T06:52:17.199Z,21.20
2023-02-02T06:54:44.840Z,21.30
2023-02-02T06:57:12.216Z,21.50
2023-02-02T06:59:41.069Z,21.60
2023-02-02T07:02:17.445Z,21.80
2023-02-02T07:04:44.698Z,21.90
2023-02-02T07:07:12.269Z,22.10
2023-02-02T07:09:39.488Z,22.20
2023-02-02T07:12:07.334Z,22.30
2023-02-02T07:14:37.922Z,22.50
2023-02-02T07:17:12.213Z,22.60
2023-02-02T07:19:39.603Z,22.70
2023-02-02T07:22:07.016Z,22.90
2023-02-02T07:24:40.328Z,23.00
2023-02-02T07:27:07.768Z,23.10
2023-02-02T07:29:34.940Z,23.20
2023-02-02T07:32:02.201Z,23.30
2023-02-02T07:34:29.239Z,23.40
2023-02-02T07:36:57.944Z,23.50
2023-02-02T07:39:27.927Z,23.90
2023-02-02T07:41:55.256Z,23.70
2023-02-02T07:44:23.068Z,23.80
2023-02-02T07:46:50.421Z,23.90
2023-02-02T07:49:20.139Z,24.00
2023-02-02T07:51:49.362Z,24.00
2023-02-02T07:54:16.703Z,24.10
2023-02-02T07:56:49.676Z,24.20
2023-02-02T07:59:22.828Z,24.30
2023-02-02T08:01:53.081Z,24.40
2023-02-02T08:04:20.411Z,24.50
2023-02-02T08:06:49.804Z,24.50
2023-02-02T08:09:23.418Z,24.50
2023-02-02T08:11:50.524Z,24.60
2023-02-02T08:14:18.210Z,24.70
2023-02-02T08:16:48.520Z,24.70
2023-02-02T08:19:15.689Z,24.70
2023-02-02T08:21:42.899Z,24.80
2023-02-02T08:24:10.382Z,24.80
2023-02-02T08:26:37.640Z,24.80
2023-02-02T08:29:12.525Z,24.80
2023-02-02T08:31:46.779Z,24.80
2023-02-02T08:34:14.257Z,24.80
2023-02-02T08:36:43.815Z,24.90
2023-02-02T08:39:14.520Z,24.80
2023-02-02T08:41:41.763Z,24.80
2023-02-02T08:44:12.227Z,24.80
2023-02-02T08:46:39.535Z,24.80
2023-02-02T08:49:06.991Z,24.80
2023-02-02T08:51:33.973Z,24.80
2023-02-02T08:54:00.951Z,24.80
2023-02-02T08:56:27.889Z,24.80
2023-02-02T08:59:00.495Z,24.80
2023-02-02T09:01:30.235Z,24.70
2023-02-02T09:04:00.373Z,24.80
2023-02-02T09:06:40.187Z,24.80
2023-02-02T09:09:11.274Z,24.80
2023-02-02T09:11:39.253Z,24.80
2023-02-02T09:14:06.925Z,24.80
2023-02-02T09:16:36.040Z,24.70
2023-02-02T09:19:04.036Z,24.80
2023-02-02T09:21:31.106Z,24.80
2023-02-02T09:23:58.006Z,24.80
2023-02-02T09:26:32.037Z,24.80
2023-02-02T09:29:03.648Z,24.80
2023-02-02T09:31:35.517Z,24.80
2023-02-02T09:34:08.913Z,24.90
2023-02-02T09:36:38.044Z,24.70
2023-02-02T09:39:06.285Z,24.70
2023-02-02T09:41:39.422Z,24.70
2023-02-02T09:44:33.097Z,24.80
2023-02-02T09:47:26.286Z,24.70
2023-02-02T09:50:02.010Z,24.90
2023-02-02T09:52:34.437Z,24.90
2023-02-02T09:55:16.498Z,24.90
2023-02-02T09:57:53.140Z,24.80
2023-02-02T10:00:47.931Z,24.90
2023-02-02T10:03:35.195Z,25.20
2023-02-02T10:06:13.327Z,24.80
2023-02-02T10:08:47.682Z,24.70
2023-02-02T10:11:53.845Z,24.90
2023-02-02T10:14:33.348Z,24.90
2023-02-02T10:17:25.496Z,24.90
2023-02-02T10:20:04.160Z,24.90
2023-02-02T10:22:34.468Z,24.90
2023-02-02T10:25:01.573Z,25.00
2023-02-02T10:27:40.109Z,25.00
2023-02-02T10:30:28.325Z,25.00
2023-02-02T10:33:16.597Z,25.00
2023-02-02T10:35:59.630Z,25.00
2023-02-02T10:38:53.128Z,25.00
2023-02-02T10:41:36.107Z,25.00
2023-02-02T10:44:47.930Z,25.00
2023-02-02T10:47:29.348Z,25.10
2023-02-02T10:50:21.335Z,25.10
2023-02-02T10:52:56.143Z,25.20
2023-02-02T10:55:44.567Z,25.20
2023-02-02T10:58:14.254Z,25.20
2023-02-02T11:00:57.935Z,25.10
2023-02-02T11:03:33.421Z,25.20
2023-02-02T11:06:22.886Z,25.20
2023-02-02T11:09:03.948Z,25.20
2023-02-02T11:11:41.863Z,25.20
2023-02-02T11:14:08.877Z,25.20
2023-02-02T11:16:44.642Z,25.10
2023-02-02T11:19:20.495Z,25.20
2023-02-02T11:21:54.676Z,25.20
2023-02-02T11:24:26.552Z,25.10
2023-02-02T11:27:23.885Z,25.20
2023-02-02T11:29:57.758Z,25.20
2023-02-02T11:32:35.587Z,25.20
2023-02-02T11:35:02.422Z,25.20
2023-02-02T11:37:35.184Z,25.10
2023-02-02T11:40:35.758Z,25.10
2023-02-02T11:43:26.112Z,25.20
2023-02-02T11:46:04.560Z,25.10
2023-02-02T11:48:39.319Z,25.20
2023-02-02T11:51:08.197Z,25.10
2023-02-02T11:54:17.069Z,25.10
2023-02-02T11:56:53.291Z,25.10
2023-02-02T11:59:42.743Z,25.20
2023-02-02T12:02:30.610Z,25.10
2023-02-02T12:05:37.037Z,25.10
2023-02-02T12:08:05.101Z,25.10
2023-02-02T12:11:03.612Z,25.10
2023-02-02T12:13:45.727Z,25.10
2023-02-02T12:17:12.873Z,25.10
2023-02-02T12:19:45.666Z,25.10
2023-02-02T12:23:13.216Z,25.10
2023-02-02T12:26:19.184Z,25.10
2023-02-02T12:29:31.005Z,25.10
2023-02-02T12:32:27.323Z,25.00
2023-02-02T12:35:29.131Z,25.10
2023-02-02T12:38:31.338Z,25.10
2023-02-02T12:41:10.399Z,25.10
2023-02-02T12:43:49.153Z,25.10
2023-02-02T12:46:44.869Z,25.00
2023-02-02T12:49:32.628Z,25.00
2023-02-02T12:52:22.905Z,25.00
2023-02-02T12:55:01.999Z,25.00
2023-02-02T12:57:48.699Z,25.00
2023-02-02T13:00:39.739Z,25.00
2023-02-02T13:04:02.512Z,25.00
2023-02-02T13:07:25.111Z,25.10
2023-02-02T13:10:28.566Z,25.00
2023-02-02T13:13:08.514Z,25.00
2023-02-02T13:15:48.157Z,25.10
2023-02-02T13:18:29.665Z,25.00
2023-02-02T13:21:03.775Z,25.00
2023-02-02T13:23:50.438Z,25.00
2023-02-02T13:26:22.851Z,25.00
2023-02-02T13:29:17.389Z,25.00
2023-02-02T13:32:11.696Z,25.10
2023-02-02T13:35:00.738Z,25.00
2023-02-02T13:37:54.775Z,25.10
2023-02-02T13:40:38.295Z,25.00
2023-02-02T13:43:42.334Z,25.10
2023-02-02T13:46:47.590Z,25.10
2023-02-02T13:49:42.635Z,25.10
2023-02-02T13:52:40.717Z,25.10
2023-02-02T13:56:04.130Z,25.10
2023-02-02T13:59:00.854Z,25.10
2023-02-02T14:01:29.925Z,25.20
2023-02-02T14:04:00.607Z,25.20
2023-02-02T14:06:28.847Z,25.10
2023-02-02T14:08:58.725Z,25.20
2023-02-02T14:11:37.836Z,25.20
2023-02-02T14:14:32.898Z,25.20
2023-02-02T14:17:21.328Z,25.20
2023-02-02T14:19:53.551Z,25.20
2023-02-02T14:22:45.512Z,25.20
2023-02-02T14:25:34.079Z,25.20
2023-02-02T14:28:05.106Z,25.30
2023-02-02T14:30:38.862Z,25.20
2023-02-02T14:33:27.552Z,25.30
2023-02-02T14:36:01.637Z,25.20
2023-02-02T14:39:20.261Z,25.20
2023-02-02T14:42:36.537Z,25.20
2023-02-02T14:45:12.672Z,25.20
2023-02-02T14:47:55.814Z,25.20
2023-02-02T14:50:46.713Z,25.20
2023-02-02T14:53:28.773Z,25.20
2023-02-02T14:56:16.674Z,25.20
2023-02-02T14:58:46.185Z,25.20
2023-02-02T15:01:27.091Z,25.20
2023-02-02T15:04:15.762Z,25.20
2023-02-02T15:06:43.918Z,25.20
2023-02-02T15:09:20.200Z,25.20
2023-02-02T15:12:01.148Z,25.20
2023-02-02T15:14:41.717Z,25.30
2023-02-02T15:17:40.521Z,25.30
2023-02-02T15:20:21.216Z,25.30
2023-02-02T15:22:48.284Z,25.30
2023-02-02T15:26:00.670Z,25.40
2023-02-02T15:29:01.863Z,25.40
2023-02-02T15:31:45.504Z,25.40
2023-02-02T15:34:34.010Z,25.40
2023-02-02T15:37:05.920Z,25.40
2023-02-02T15:39:46.167Z,25.50
2023-02-02T15:42:41.572Z,25.40
2023-02-02T15:45:29.039Z,25.30
2023-02-02T15:47:58.808Z,25.20
2023-02-02T15:50:27.094Z,25.30
2023-02-02T15:52:55.972Z,25.30
2023-02-02T15:55:36.745Z,25.30
2023-02-02T15:58:22.819Z,25.30
2023-02-02T16:01:05.732Z,25.30
2023-02-02T16:03:47.670Z,25.30
2023-02-02T16:06:14.972Z,25.30
2023-02-02T16:08:42.366Z,25.40
2023-02-02T16:11:20.712Z,25.40
2023-02-02T16:14:01.602Z,25.40
2023-02-02T16:16:37.641Z,25.50
2023-02-02T16:19:26.723Z,25.50
2023-02-02T16:22:03.290Z,25.60
2023-02-02T16:24:36.230Z,25.60
2023-02-02T16:27:08.405Z,25.70
2023-02-02T16:29:36.066Z,25.70
2023-02-02T16:32:04.651Z,25.70
2023-02-02T16:34:40.856Z,25.80
2023-02-02T16:37:25.678Z,25.80
2023-02-02T16:39:53.256Z,25.70
2023-02-02T16:42:31.749Z,25.80
2023-02-02T16:45:01.013Z,25.80
2023-02-02T16:47:28.036Z,25.80
2023-02-02T16:50:31.197Z,25.70
2023-02-02T16:53:06.157Z,25.70
2023-02-02T16:55:49.484Z,25.70
2023-02-02T16:58:23.461Z,25.60
2023-02-02T17:01:16.708Z,25.70
2023-02-02T17:03:55.001Z,25.60
2023-02-02T17:06:45.894Z,25.60
2023-02-02T17:09:37.445Z,25.60
2023-02-02T17:12:32.635Z,25.50
2023-02-02T17:15:20.805Z,25.40
2023-02-02T17:17:49.132Z,25.40
2023-02-02T17:20:18.228Z,25.40
2023-02-02T17:22:58.078Z,25.30
2023-02-02T17:25:29.717Z,25.20
2023-02-02T17:27:59.375Z,25.20
2023-02-02T17:30:28.829Z,25.20
2023-02-02T17:32:56.618Z,25.10
2023-02-02T17:35:27.157Z,25.00
2023-02-02T17:37:55.249Z,25.00
2023-02-02T17:40:24.164Z,24.90
2023-02-02T17:42:53.503Z,24.90
2023-02-02T17:45:33.763Z,24.90
2023-02-02T17:48:02.965Z,24.80
2023-02-02T17:50:32.839Z,24.80
2023-02-02T17:53:00.163Z,24.70
2023-02-02T17:55:37.891Z,24.70
2023-02-02T17:58:04.904Z,24.60
2023-02-02T18:00:32.409Z,24.50
2023-02-02T18:03:26.576Z,24.50
2023-02-02T18:05:53.831Z,24.50
2023-02-02T18:08:20.965Z,24.40
2023-02-02T18:10:48.041Z,24.40
2023-02-02T18:13:17.454Z,24.30
2023-02-02T18:15:44.492Z,24.20
2023-02-02T18:18:12.612Z,24.20
2023-02-02T18:20:49.603Z,24.10
2023-02-02T18:23:19.032Z,24.10
2023-02-02T18:25:46.200Z,24.10
2023-02-02T18:28:17.100Z,24.00
2023-02-02T18:30:45.938Z,24.00
2023-02-02T18:33:14.384Z,24.00
2023-02-02T18:35:43.173Z,23.90
2023-02-02T18:38:10.792Z,23.80
2023-02-02T18:40:38.441Z,23.80
2023-02-02T18:43:05.795Z,23.80
2023-02-02T18:45:32.804Z,23.70
2023-02-02T18:47:59.836Z,23.70
2023-02-02T18:50:26.835Z,23.70
2023-02-02T18:52:53.745Z,23.60
2023-02-02T18:55:20.963Z,23.60
2023-02-02T18:57:48.292Z,23.60
2023-02-02T19:00:19.312Z,23.50
2023-02-02T19:02:46.188Z,23.50
2023-02-02T19:05:32.065Z,23.50
2023-02-02T19:07:59.194Z,23.40
2023-02-02T19:10:27.331Z,23.40
2023-02-02T19:13:19.364Z,23.40
2023-02-02T19:15:49.592Z,23.40
2023-02-02T19:18:24.666Z,23.30
2023-02-02T19:20:53.180Z,23.30
2023-02-02T19:23:31.043Z,23.30
2023-02-02T19:25:58.256Z,23.20
2023-02-02T19:28:31.243Z,23.20
2023-02-02T19:31:01.724Z,23.20
2023-02-02T19:33:51.295Z,23.20
2023-02-02T19:36:21.089Z,23.20
2023-02-02T19:38:51.998Z,23.10
2023-02-02T19:41:21.479Z,23.10
2023-02-02T19:43:51.892Z,23.10
2023-02-02T19:46:23.071Z,23.10
2023-02-02T19:48:59.204Z,23.00
2023-02-02T19:51:44.249Z,23.00
2023-02-02T19:54:36.367Z,23.00
2023-02-02T19:57:24.073Z,23.00
2023-02-02T19:59:52.764Z,23.00
2023-02-02T20:02:43.772Z,22.90
2023-02-02T20:05:25.163Z,22.90
2023-02-02T20:08:16.441Z,22.90
2023-02-02T20:10:46.050Z,22.90
2023-02-02T20:13:20.712Z,22.90
2023-02-02T20:15:50.591Z,22.90
2023-02-02T20:18:27.162Z,22.90
2023-02-02T20:20:57.939Z,22.80
2023-02-02T20:23:38.867Z,22.80
2023-02-02T20:26:26.093Z,22.80
2023-02-02T20:28:57.542Z,22.80
2023-02-02T20:31:36.566Z,22.70
2023-02-02T20:34:36.129Z,22.80
2023-02-02T20:37:21.155Z,22.70
2023-02-02T20:40:32.406Z,22.70
2023-02-02T20:42:59.629Z,22.70
2023-02-02T20:45:26.751Z,22.70
2023-02-02T20:47:54.068Z,22.60
2023-02-02T20:50:23.073Z,22.70
2023-02-02T20:52:51.830Z,22.60
2023-02-02T20:55:19.056Z,22.60
2023-02-02T20:57:46.079Z,22.60
2023-02-02T21:00:17.274Z,22.60
2023-02-02T21:02:44.417Z,22.60
2023-02-02T21:05:11.422Z,22.60
2023-02-02T21:07:38.340Z,22.50
2023-02-02T21:10:06.463Z,22.50
2023-02-02T21:12:33.492Z,22.50
2023-02-02T21:15:01.552Z,22.50
2023-02-02T21:17:28.641Z,22.50
2023-02-02T21:19:58.142Z,22.50
2023-02-02T21:22:25.062Z,22.50
2023-02-02T21:24:52.180Z,22.50
2023-02-02T21:27:19.155Z,22.40
2023-02-02T21:29:46.087Z,22.40
2023-02-02T21:32:13.040Z,22.40
2023-02-02T21:34:40.224Z,22.40
2023-02-02T21:37:14.498Z,22.40
2023-02-02T21:39:48.480Z,22.40
2023-02-02T21:42:21.986Z,22.40
2023-02-02T21:45:07.428Z,22.40
2023-02-02T21:47:50.194Z,22.40
2023-02-02T21:50:22.247Z,22.40
2023-02-02T21:52:49.197Z,22.40
2023-02-02T21:55:44.601Z,22.30
2023-02-02T21:58:19.257Z,22.40
2023-02-02T22:00:46.757Z,22.30
2023-02-02T22:03:26.485Z,22.30
2023-02-02T22:06:20.298Z,22.30
2023-02-02T22:08:48.895Z,22.30
2023-02-02T22:11:50.045Z,22.30
2023-02-02T22:14:38.761Z,22.30
2023-02-02T22:17:23.265Z,22.30
2023-02-02T22:19:56.927Z,22.30
2023-02-02T22:22:32.597Z,22.20
2023-02-02T22:25:04.255Z,22.30
2023-02-02T22:28:00.428Z,22.20
2023-02-02T22:30:40.344Z,22.20
2023-02-02T22:33:10.312Z,22.20
2023-02-02T22:35:37.858Z,22.20
2023-02-02T22:38:05.587Z,22.10
2023-02-02T22:40:32.777Z,22.10
2023-02-02T22:43:06.501Z,22.10
2023-02-02T22:45:34.597Z,22.20
2023-02-02T22:48:01.871Z,22.10
2023-02-02T22:50:31.451Z,22.10
2023-02-02T22:52:59.043Z,22.10
2023-02-02T22:55:26.366Z,22.10
2023-02-02T22:57:53.460Z,22.10
2023-02-02T23:00:25.526Z,22.10
2023-02-02T23:02:54.260Z,22.10
2023-02-02T23:05:22.788Z,22.10
2023-02-02T23:07:50.909Z,22.10
2023-02-02T23:10:21.831Z,22.10
2023-02-02T23:12:50.316Z,22.10
2023-02-02T23:15:19.280Z,22.10
2023-02-02T23:17:46.324Z,22.00
2023-02-02T23:20:14.606Z,22.00
2023-02-02T23:22:41.620Z,22.10
2023-02-02T23:25:09.087Z,22.00
2023-02-02T23:27:36.499Z,22.00
2023-02-02T23:30:05.707Z,22.00
2023-02-02T23:32:32.630Z,22.00
2023-02-02T23:34:59.539Z,22.00
2023-02-02T23:37:26.554Z,22.00
2023-02-02T23:39:53.436Z,22.00
2023-02-02T23:42:20.380Z,22.00
2023-02-02T23:44:47.329Z,22.00
2023-02-02T23:47:14.397Z,22.00
2023-02-02T23:49:41.331Z,22.00
2023-02-02T23:52:08.286Z,21.90
2023-02-02T23:54:36.301Z,22.00
2023-02-02T23:57:04.116Z,22.00
2023-02-02T23:59:31.014Z,22.00
